sensor_id;sensor_type;location;lat;lon;timestamp;P1;durP1;ratioP1;P2;durP2;ratioP2
1699;SDS011;847;48.058;7.810;2024-01-27T00:01:09;3.40;;;3.10;;
1699;SDS011;847;48.058;7.810;2024-01-27T00:03:36;5.43;;;3.50;;
1699;SDS011;847;48.058;7.810;2024-01-27T00:06:03;4.53;;;3.57;;
1699;SDS011;847;48.058;7.810;2024-01-27T00:08:31;4.07;;;3.43;;
1699;SDS011;847;48.058;7.810;2024-01-27T00:10:58;3.47;;;3.07;;
1699;SDS011;847;48.058;7.810;2024-01-27T00:13:25;3.30;;;2.90;;
1699;SDS011;847;48.058;7.810;2024-01-27T00:15:51;3.87;;;3.27;;
1699;SDS011;847;48.058;7.810;2024-01-27T00:18:19;4.83;;;3.10;;
1699;SDS011;847;48.058;7.810;2024-01-27T00:20:46;3.20;;;2.93;;
1699;SDS011;847;48.058;7.810;2024-01-27T00:23:13;3.00;;;2.70;;
1699;SDS011;847;48.058;7.810;2024-01-27T00:25:41;3.13;;;2.83;;
1699;SDS011;847;48.058;7.810;2024-01-27T00:28:07;3.53;;;2.87;;
1699;SDS011;847;48.058;7.810;2024-01-27T00:30:34;3.60;;;2.97;;
1699;SDS011;847;48.058;7.810;2024-01-27T00:33:01;4.20;;;3.10;;
1699;SDS011;847;48.058;7.810;2024-01-27T00:35:28;4.10;;;3.20;;
1699;SDS011;847;48.058;7.810;2024-01-27T00:37:55;3.23;;;2.93;;
1699;SDS011;847;48.058;7.810;2024-01-27T00:40:22;5.03;;;3.10;;
1699;SDS011;847;48.058;7.810;2024-01-27T00:42:50;3.30;;;2.60;;
1699;SDS011;847;48.058;7.810;2024-01-27T00:45:16;3.47;;;3.17;;
1699;SDS011;847;48.058;7.810;2024-01-27T00:47:43;3.87;;;2.80;;
1699;SDS011;847;48.058;7.810;2024-01-27T00:50:10;4.40;;;3.23;;
1699;SDS011;847;48.058;7.810;2024-01-27T00:52:37;3.17;;;2.67;;
1699;SDS011;847;48.058;7.810;2024-01-27T00:55:04;4.97;;;3.23;;
1699;SDS011;847;48.058;7.810;2024-01-27T00:57:31;2.83;;;2.50;;
1699;SDS011;847;48.058;7.810;2024-01-27T00:59:59;3.07;;;2.80;;
1699;SDS011;847;48.058;7.810;2024-01-27T01:02:26;3.00;;;2.70;;
1699;SDS011;847;48.058;7.810;2024-01-27T01:04:54;3.10;;;2.80;;
1699;SDS011;847;48.058;7.810;2024-01-27T01:07:20;3.13;;;2.80;;
1699;SDS011;847;48.058;7.810;2024-01-27T01:09:47;4.17;;;3.50;;
1699;SDS011;847;48.058;7.810;2024-01-27T01:12:14;4.23;;;3.30;;
1699;SDS011;847;48.058;7.810;2024-01-27T01:14:40;3.47;;;3.17;;
1699;SDS011;847;48.058;7.810;2024-01-27T01:17:09;4.40;;;3.40;;
1699;SDS011;847;48.058;7.810;2024-01-27T01:19:36;3.30;;;2.97;;
1699;SDS011;847;48.058;7.810;2024-01-27T01:22:03;3.47;;;2.93;;
1699;SDS011;847;48.058;7.810;2024-01-27T01:24:30;3.40;;;3.00;;
1699;SDS011;847;48.058;7.810;2024-01-27T01:26:57;4.00;;;3.37;;
1699;SDS011;847;48.058;7.810;2024-01-27T01:29:24;3.57;;;3.27;;
1699;SDS011;847;48.058;7.810;2024-01-27T01:31:51;3.87;;;3.47;;
1699;SDS011;847;48.058;7.810;2024-01-27T01:34:19;4.70;;;3.17;;
1699;SDS011;847;48.058;7.810;2024-01-27T01:36:46;3.70;;;2.90;;
1699;SDS011;847;48.058;7.810;2024-01-27T01:39:13;3.90;;;3.53;;
1699;SDS011;847;48.058;7.810;2024-01-27T01:41:40;3.73;;;3.10;;
1699;SDS011;847;48.058;7.810;2024-01-27T01:44:07;3.60;;;3.30;;
1699;SDS011;847;48.058;7.810;2024-01-27T01:46:34;2.97;;;2.67;;
1699;SDS011;847;48.058;7.810;2024-01-27T01:49:01;3.80;;;3.00;;
1699;SDS011;847;48.058;7.810;2024-01-27T01:51:29;3.10;;;2.80;;
1699;SDS011;847;48.058;7.810;2024-01-27T01:53:57;4.60;;;3.50;;
1699;SDS011;847;48.058;7.810;2024-01-27T01:56:24;3.07;;;2.70;;
1699;SDS011;847;48.058;7.810;2024-01-27T01:58:52;3.93;;;3.47;;
1699;SDS011;847;48.058;7.810;2024-01-27T02:01:20;4.13;;;2.73;;
1699;SDS011;847;48.058;7.810;2024-01-27T02:03:53;5.10;;;3.40;;
1699;SDS011;847;48.058;7.810;2024-01-27T02:06:21;2.70;;;2.50;;
1699;SDS011;847;48.058;7.810;2024-01-27T02:08:49;8.53;;;3.37;;
1699;SDS011;847;48.058;7.810;2024-01-27T02:11:16;4.30;;;3.47;;
1699;SDS011;847;48.058;7.810;2024-01-27T02:13:43;2.87;;;2.63;;
1699;SDS011;847;48.058;7.810;2024-01-27T02:16:10;3.53;;;2.87;;
1699;SDS011;847;48.058;7.810;2024-01-27T02:18:36;2.20;;;2.00;;
1699;SDS011;847;48.058;7.810;2024-01-27T02:21:03;2.50;;;2.30;;
1699;SDS011;847;48.058;7.810;2024-01-27T02:23:32;2.67;;;2.47;;
1699;SDS011;847;48.058;7.810;2024-01-27T02:26:00;3.10;;;2.80;;
1699;SDS011;847;48.058;7.810;2024-01-27T02:28:26;3.00;;;2.63;;
1699;SDS011;847;48.058;7.810;2024-01-27T02:30:57;2.90;;;2.50;;
1699;SDS011;847;48.058;7.810;2024-01-27T02:33:24;4.10;;;3.10;;
1699;SDS011;847;48.058;7.810;2024-01-27T02:35:51;3.10;;;2.70;;
1699;SDS011;847;48.058;7.810;2024-01-27T02:38:18;4.50;;;3.13;;
1699;SDS011;847;48.058;7.810;2024-01-27T02:40:44;3.07;;;2.77;;
1699;SDS011;847;48.058;7.810;2024-01-27T02:43:13;3.63;;;3.07;;
1699;SDS011;847;48.058;7.810;2024-01-27T02:45:39;3.50;;;3.20;;
1699;SDS011;847;48.058;7.810;2024-01-27T02:48:06;3.60;;;3.30;;
1699;SDS011;847;48.058;7.810;2024-01-27T02:50:33;4.70;;;3.40;;
1699;SDS011;847;48.058;7.810;2024-01-27T02:53:00;6.23;;;3.27;;
1699;SDS011;847;48.058;7.810;2024-01-27T02:55:27;3.80;;;2.97;;
1699;SDS011;847;48.058;7.810;2024-01-27T02:57:53;3.47;;;2.97;;
1699;SDS011;847;48.058;7.810;2024-01-27T03:00:21;4.07;;;3.00;;
1699;SDS011;847;48.058;7.810;2024-01-27T03:02:48;3.83;;;3.53;;
1699;SDS011;847;48.058;7.810;2024-01-27T03:05:15;4.30;;;3.13;;
1699;SDS011;847;48.058;7.810;2024-01-27T03:07:42;4.30;;;3.37;;
1699;SDS011;847;48.058;7.810;2024-01-27T03:10:08;4.00;;;3.30;;
1699;SDS011;847;48.058;7.810;2024-01-27T03:12:36;3.23;;;2.90;;
1699;SDS011;847;48.058;7.810;2024-01-27T03:15:03;3.80;;;3.30;;
1699;SDS011;847;48.058;7.810;2024-01-27T03:17:31;3.40;;;3.03;;
1699;SDS011;847;48.058;7.810;2024-01-27T03:19:58;3.63;;;3.33;;
1699;SDS011;847;48.058;7.810;2024-01-27T03:22:27;3.60;;;3.30;;
1699;SDS011;847;48.058;7.810;2024-01-27T03:24:55;7.03;;;3.53;;
1699;SDS011;847;48.058;7.810;2024-01-27T03:27:22;3.20;;;2.60;;
1699;SDS011;847;48.058;7.810;2024-01-27T03:29:48;3.63;;;2.83;;
1699;SDS011;847;48.058;7.810;2024-01-27T03:32:15;2.80;;;2.60;;
1699;SDS011;847;48.058;7.810;2024-01-27T03:34:44;4.23;;;3.37;;
1699;SDS011;847;48.058;7.810;2024-01-27T03:37:11;3.03;;;2.73;;
1699;SDS011;847;48.058;7.810;2024-01-27T03:39:40;4.10;;;3.50;;
1699;SDS011;847;48.058;7.810;2024-01-27T03:42:07;4.10;;;3.43;;
1699;SDS011;847;48.058;7.810;2024-01-27T03:44:34;3.87;;;3.57;;
1699;SDS011;847;48.058;7.810;2024-01-27T03:47:01;3.50;;;3.20;;
1699;SDS011;847;48.058;7.810;2024-01-27T03:49:28;3.60;;;3.30;;
1699;SDS011;847;48.058;7.810;2024-01-27T03:51:56;3.57;;;2.63;;
1699;SDS011;847;48.058;7.810;2024-01-27T03:54:23;5.23;;;3.50;;
1699;SDS011;847;48.058;7.810;2024-01-27T03:56:49;4.00;;;3.20;;
1699;SDS011;847;48.058;7.810;2024-01-27T03:59:16;3.17;;;2.87;;
1699;SDS011;847;48.058;7.810;2024-01-27T04:01:43;3.40;;;3.00;;
1699;SDS011;847;48.058;7.810;2024-01-27T04:04:10;3.30;;;3.00;;
1699;SDS011;847;48.058;7.810;2024-01-27T04:06:36;4.67;;;3.00;;
1699;SDS011;847;48.058;7.810;2024-01-27T04:09:05;3.70;;;3.20;;
1699;SDS011;847;48.058;7.810;2024-01-27T04:11:33;2.73;;;2.53;;
1699;SDS011;847;48.058;7.810;2024-01-27T04:14:01;3.57;;;2.70;;
1699;SDS011;847;48.058;7.810;2024-01-27T04:16:28;4.20;;;2.60;;
1699;SDS011;847;48.058;7.810;2024-01-27T04:18:54;5.53;;;3.20;;
1699;SDS011;847;48.058;7.810;2024-01-27T04:21:21;3.67;;;3.17;;
1699;SDS011;847;48.058;7.810;2024-01-27T04:23:48;3.53;;;2.73;;
1699;SDS011;847;48.058;7.810;2024-01-27T04:26:16;2.97;;;2.50;;
1699;SDS011;847;48.058;7.810;2024-01-27T04:28:43;3.33;;;3.00;;
1699;SDS011;847;48.058;7.810;2024-01-27T04:31:10;3.70;;;3.40;;
1699;SDS011;847;48.058;7.810;2024-01-27T04:33:37;4.07;;;2.90;;
1699;SDS011;847;48.058;7.810;2024-01-27T04:36:04;3.13;;;2.83;;
1699;SDS011;847;48.058;7.810;2024-01-27T04:38:34;2.90;;;2.60;;
1699;SDS011;847;48.058;7.810;2024-01-27T04:41:00;3.50;;;2.70;;
1699;SDS011;847;48.058;7.810;2024-01-27T04:43:29;3.50;;;2.50;;
1699;SDS011;847;48.058;7.810;2024-01-27T04:45:55;2.93;;;2.70;;
1699;SDS011;847;48.058;7.810;2024-01-27T04:48:22;4.10;;;2.87;;
1699;SDS011;847;48.058;7.810;2024-01-27T04:50:49;3.87;;;2.80;;
1699;SDS011;847;48.058;7.810;2024-01-27T04:53:16;3.60;;;3.30;;
1699;SDS011;847;48.058;7.810;2024-01-27T04:55:42;2.80;;;2.50;;
1699;SDS011;847;48.058;7.810;2024-01-27T04:58:09;4.20;;;3.40;;
1699;SDS011;847;48.058;7.810;2024-01-27T05:00:37;5.67;;;2.93;;
1699;SDS011;847;48.058;7.810;2024-01-27T05:03:07;3.03;;;2.57;;
1699;SDS011;847;48.058;7.810;2024-01-27T05:05:40;3.53;;;2.57;;
1699;SDS011;847;48.058;7.810;2024-01-27T05:08:07;2.93;;;2.50;;
1699;SDS011;847;48.058;7.810;2024-01-27T05:10:34;3.23;;;2.50;;
1699;SDS011;847;48.058;7.810;2024-01-27T05:13:01;3.00;;;2.77;;
1699;SDS011;847;48.058;7.810;2024-01-27T05:15:28;2.70;;;2.50;;
1699;SDS011;847;48.058;7.810;2024-01-27T05:17:56;4.00;;;3.30;;
1699;SDS011;847;48.058;7.810;2024-01-27T05:20:22;2.83;;;2.20;;
1699;SDS011;847;48.058;7.810;2024-01-27T05:22:49;4.17;;;2.30;;
1699;SDS011;847;48.058;7.810;2024-01-27T05:25:16;3.73;;;2.30;;
1699;SDS011;847;48.058;7.810;2024-01-27T05:27:43;2.80;;;2.47;;
1699;SDS011;847;48.058;7.810;2024-01-27T05:30:10;4.80;;;2.83;;
1699;SDS011;847;48.058;7.810;2024-01-27T05:32:37;2.60;;;2.30;;
1699;SDS011;847;48.058;7.810;2024-01-27T05:35:06;1.83;;;1.73;;
1699;SDS011;847;48.058;7.810;2024-01-27T05:37:34;4.30;;;2.60;;
1699;SDS011;847;48.058;7.810;2024-01-27T05:40:01;3.50;;;2.43;;
1699;SDS011;847;48.058;7.810;2024-01-27T05:42:28;3.13;;;2.70;;
1699;SDS011;847;48.058;7.810;2024-01-27T05:44:55;5.80;;;2.70;;
1699;SDS011;847;48.058;7.810;2024-01-27T05:47:22;3.17;;;2.30;;
1699;SDS011;847;48.058;7.810;2024-01-27T05:49:48;3.27;;;2.60;;
1699;SDS011;847;48.058;7.810;2024-01-27T05:52:16;3.27;;;2.40;;
1699;SDS011;847;48.058;7.810;2024-01-27T05:54:43;5.23;;;2.50;;
1699;SDS011;847;48.058;7.810;2024-01-27T05:57:11;2.67;;;2.47;;
1699;SDS011;847;48.058;7.810;2024-01-27T05:59:38;3.17;;;2.80;;
1699;SDS011;847;48.058;7.810;2024-01-27T06:02:04;3.50;;;2.63;;
1699;SDS011;847;48.058;7.810;2024-01-27T06:04:31;3.67;;;2.80;;
1699;SDS011;847;48.058;7.810;2024-01-27T06:06:59;3.80;;;2.43;;
1699;SDS011;847;48.058;7.810;2024-01-27T06:09:27;3.47;;;3.17;;
1699;SDS011;847;48.058;7.810;2024-01-27T06:11:54;2.50;;;2.30;;
1699;SDS011;847;48.058;7.810;2024-01-27T06:14:24;2.47;;;2.27;;
1699;SDS011;847;48.058;7.810;2024-01-27T06:16:50;3.90;;;2.57;;
1699;SDS011;847;48.058;7.810;2024-01-27T06:19:18;4.40;;;2.70;;
1699;SDS011;847;48.058;7.810;2024-01-27T06:21:46;3.13;;;2.53;;
1699;SDS011;847;48.058;7.810;2024-01-27T06:24:13;3.40;;;2.77;;
1699;SDS011;847;48.058;7.810;2024-01-27T06:26:41;3.10;;;2.37;;
1699;SDS011;847;48.058;7.810;2024-01-27T06:29:08;4.70;;;2.13;;
1699;SDS011;847;48.058;7.810;2024-01-27T06:31:34;3.53;;;2.57;;
1699;SDS011;847;48.058;7.810;2024-01-27T06:34:01;3.93;;;2.10;;
1699;SDS011;847;48.058;7.810;2024-01-27T06:36:28;2.57;;;2.37;;
1699;SDS011;847;48.058;7.810;2024-01-27T06:38:55;2.77;;;2.57;;
1699;SDS011;847;48.058;7.810;2024-01-27T06:41:22;2.60;;;2.20;;
1699;SDS011;847;48.058;7.810;2024-01-27T06:43:50;2.60;;;2.40;;
1699;SDS011;847;48.058;7.810;2024-01-27T06:46:17;3.40;;;2.20;;
1699;SDS011;847;48.058;7.810;2024-01-27T06:48:44;2.97;;;2.27;;
1699;SDS011;847;48.058;7.810;2024-01-27T06:51:10;5.57;;;2.83;;
1699;SDS011;847;48.058;7.810;2024-01-27T06:53:38;4.67;;;2.93;;
1699;SDS011;847;48.058;7.810;2024-01-27T06:56:05;3.63;;;2.60;;
1699;SDS011;847;48.058;7.810;2024-01-27T06:58:33;3.90;;;3.17;;
1699;SDS011;847;48.058;7.810;2024-01-27T07:01:01;5.27;;;3.63;;
1699;SDS011;847;48.058;7.810;2024-01-27T07:03:28;4.87;;;2.77;;
1699;SDS011;847;48.058;7.810;2024-01-27T07:05:55;3.33;;;2.80;;
1699;SDS011;847;48.058;7.810;2024-01-27T07:08:21;3.90;;;3.57;;
1699;SDS011;847;48.058;7.810;2024-01-27T07:10:48;4.50;;;3.03;;
1699;SDS011;847;48.058;7.810;2024-01-27T07:13:15;2.87;;;2.57;;
1699;SDS011;847;48.058;7.810;2024-01-27T07:15:41;4.63;;;3.30;;
1699;SDS011;847;48.058;7.810;2024-01-27T07:18:10;3.13;;;2.73;;
1699;SDS011;847;48.058;7.810;2024-01-27T07:20:40;3.33;;;3.03;;
1699;SDS011;847;48.058;7.810;2024-01-27T07:23:07;5.07;;;2.60;;
1699;SDS011;847;48.058;7.810;2024-01-27T07:25:35;5.00;;;3.27;;
1699;SDS011;847;48.058;7.810;2024-01-27T07:28:02;3.97;;;3.53;;
1699;SDS011;847;48.058;7.810;2024-01-27T07:30:29;9.67;;;3.43;;
1699;SDS011;847;48.058;7.810;2024-01-27T07:32:56;4.47;;;3.40;;
1699;SDS011;847;48.058;7.810;2024-01-27T07:35:24;4.53;;;4.10;;
1699;SDS011;847;48.058;7.810;2024-01-27T07:37:51;8.87;;;3.60;;
1699;SDS011;847;48.058;7.810;2024-01-27T07:40:17;4.70;;;3.10;;
1699;SDS011;847;48.058;7.810;2024-01-27T07:42:44;9.97;;;7.37;;
1699;SDS011;847;48.058;7.810;2024-01-27T07:45:11;7.87;;;5.87;;
1699;SDS011;847;48.058;7.810;2024-01-27T07:47:38;10.47;;;6.90;;
1699;SDS011;847;48.058;7.810;2024-01-27T07:50:05;10.43;;;7.20;;
1699;SDS011;847;48.058;7.810;2024-01-27T07:52:33;8.17;;;7.37;;
1699;SDS011;847;48.058;7.810;2024-01-27T07:55:00;8.67;;;6.50;;
1699;SDS011;847;48.058;7.810;2024-01-27T07:57:27;9.70;;;6.27;;
1699;SDS011;847;48.058;7.810;2024-01-27T07:59:54;8.00;;;6.13;;
1699;SDS011;847;48.058;7.810;2024-01-27T08:02:21;6.97;;;6.23;;
1699;SDS011;847;48.058;7.810;2024-01-27T08:04:47;6.73;;;6.13;;
1699;SDS011;847;48.058;7.810;2024-01-27T08:07:14;8.80;;;5.87;;
1699;SDS011;847;48.058;7.810;2024-01-27T08:09:43;7.27;;;5.03;;
1699;SDS011;847;48.058;7.810;2024-01-27T08:12:09;7.10;;;5.77;;
1699;SDS011;847;48.058;7.810;2024-01-27T08:14:36;7.40;;;5.07;;
1699;SDS011;847;48.058;7.810;2024-01-27T08:17:03;7.00;;;4.73;;
1699;SDS011;847;48.058;7.810;2024-01-27T08:19:30;6.47;;;5.00;;
1699;SDS011;847;48.058;7.810;2024-01-27T08:21:57;6.50;;;5.47;;
1699;SDS011;847;48.058;7.810;2024-01-27T08:24:24;4.93;;;4.43;;
1699;SDS011;847;48.058;7.810;2024-01-27T08:26:52;8.23;;;6.27;;
1699;SDS011;847;48.058;7.810;2024-01-27T08:29:19;12.23;;;9.80;;
1699;SDS011;847;48.058;7.810;2024-01-27T08:31:45;7.37;;;6.67;;
1699;SDS011;847;48.058;7.810;2024-01-27T08:34:12;9.60;;;6.73;;
1699;SDS011;847;48.058;7.810;2024-01-27T08:36:39;6.00;;;5.37;;
1699;SDS011;847;48.058;7.810;2024-01-27T08:39:06;8.30;;;5.93;;
1699;SDS011;847;48.058;7.810;2024-01-27T08:41:33;9.50;;;8.50;;
1699;SDS011;847;48.058;7.810;2024-01-27T08:44:02;7.50;;;6.90;;
1699;SDS011;847;48.058;7.810;2024-01-27T08:46:28;8.10;;;7.30;;
1699;SDS011;847;48.058;7.810;2024-01-27T08:48:55;7.27;;;6.10;;
1699;SDS011;847;48.058;7.810;2024-01-27T08:51:22;7.93;;;4.67;;
1699;SDS011;847;48.058;7.810;2024-01-27T08:53:49;3.90;;;3.23;;
1699;SDS011;847;48.058;7.810;2024-01-27T08:56:16;4.43;;;3.53;;
1699;SDS011;847;48.058;7.810;2024-01-27T08:58:43;4.10;;;3.30;;
1699;SDS011;847;48.058;7.810;2024-01-27T09:01:15;5.30;;;4.80;;
1699;SDS011;847;48.058;7.810;2024-01-27T09:03:42;5.40;;;4.00;;
1699;SDS011;847;48.058;7.810;2024-01-27T09:06:09;5.27;;;4.13;;
1699;SDS011;847;48.058;7.810;2024-01-27T09:08:36;5.27;;;4.03;;
1699;SDS011;847;48.058;7.810;2024-01-27T09:11:03;8.10;;;4.23;;
1699;SDS011;847;48.058;7.810;2024-01-27T09:13:30;6.67;;;4.80;;
1699;SDS011;847;48.058;7.810;2024-01-27T09:15:57;6.53;;;4.00;;
1699;SDS011;847;48.058;7.810;2024-01-27T09:18:25;5.97;;;4.10;;
1699;SDS011;847;48.058;7.810;2024-01-27T09:20:52;4.30;;;3.90;;
1699;SDS011;847;48.058;7.810;2024-01-27T09:23:19;5.47;;;3.83;;
1699;SDS011;847;48.058;7.810;2024-01-27T09:25:46;14.43;;;8.87;;
1699;SDS011;847;48.058;7.810;2024-01-27T09:28:13;7.17;;;5.60;;
1699;SDS011;847;48.058;7.810;2024-01-27T09:30:41;7.10;;;6.40;;
1699;SDS011;847;48.058;7.810;2024-01-27T09:33:07;7.13;;;5.80;;
1699;SDS011;847;48.058;7.810;2024-01-27T09:35:35;9.33;;;6.13;;
1699;SDS011;847;48.058;7.810;2024-01-27T09:38:02;12.80;;;5.67;;
1699;SDS011;847;48.058;7.810;2024-01-27T09:40:29;7.10;;;4.90;;
1699;SDS011;847;48.058;7.810;2024-01-27T09:42:57;5.77;;;4.50;;
1699;SDS011;847;48.058;7.810;2024-01-27T09:45:25;8.57;;;4.50;;
1699;SDS011;847;48.058;7.810;2024-01-27T09:47:53;10.00;;;4.77;;
1699;SDS011;847;48.058;7.810;2024-01-27T09:50:22;6.47;;;4.80;;
1699;SDS011;847;48.058;7.810;2024-01-27T09:52:58;9.00;;;4.87;;
1699;SDS011;847;48.058;7.810;2024-01-27T09:55:25;5.40;;;4.47;;
1699;SDS011;847;48.058;7.810;2024-01-27T09:57:52;7.33;;;5.27;;
1699;SDS011;847;48.058;7.810;2024-01-27T10:00:20;7.40;;;3.97;;
1699;SDS011;847;48.058;7.810;2024-01-27T10:02:48;4.67;;;3.57;;
1699;SDS011;847;48.058;7.810;2024-01-27T10:05:15;10.30;;;6.27;;
1699;SDS011;847;48.058;7.810;2024-01-27T10:07:43;8.80;;;6.17;;
1699;SDS011;847;48.058;7.810;2024-01-27T10:10:11;9.60;;;7.03;;
1699;SDS011;847;48.058;7.810;2024-01-27T10:12:40;8.57;;;6.60;;
1699;SDS011;847;48.058;7.810;2024-01-27T10:15:17;13.67;;;7.90;;
1699;SDS011;847;48.058;7.810;2024-01-27T10:17:45;10.97;;;6.90;;
1699;SDS011;847;48.058;7.810;2024-01-27T10:20:12;8.97;;;7.10;;
1699;SDS011;847;48.058;7.810;2024-01-27T10:22:40;6.03;;;4.60;;
1699;SDS011;847;48.058;7.810;2024-01-27T10:25:08;4.27;;;3.57;;
1699;SDS011;847;48.058;7.810;2024-01-27T10:27:36;6.23;;;3.67;;
1699;SDS011;847;48.058;7.810;2024-01-27T10:30:04;5.03;;;3.63;;
1699;SDS011;847;48.058;7.810;2024-01-27T10:32:32;4.03;;;3.27;;
1699;SDS011;847;48.058;7.810;2024-01-27T10:35:01;4.50;;;3.37;;
1699;SDS011;847;48.058;7.810;2024-01-27T10:37:29;5.00;;;3.00;;
1699;SDS011;847;48.058;7.810;2024-01-27T10:39:59;11.80;;;4.57;;
1699;SDS011;847;48.058;7.810;2024-01-27T10:42:27;6.40;;;3.30;;
1699;SDS011;847;48.058;7.810;2024-01-27T10:44:56;4.43;;;3.60;;
1699;SDS011;847;48.058;7.810;2024-01-27T10:47:25;4.27;;;2.67;;
1699;SDS011;847;48.058;7.810;2024-01-27T10:49:54;9.10;;;3.90;;
1699;SDS011;847;48.058;7.810;2024-01-27T10:52:23;3.00;;;2.70;;
1699;SDS011;847;48.058;7.810;2024-01-27T10:54:54;5.20;;;2.70;;
1699;SDS011;847;48.058;7.810;2024-01-27T10:57:25;4.10;;;3.50;;
1699;SDS011;847;48.058;7.810;2024-01-27T10:59:53;6.20;;;4.40;;
1699;SDS011;847;48.058;7.810;2024-01-27T11:02:21;3.33;;;3.03;;
1699;SDS011;847;48.058;7.810;2024-01-27T11:04:49;5.50;;;3.67;;
1699;SDS011;847;48.058;7.810;2024-01-27T11:07:17;6.50;;;3.90;;
1699;SDS011;847;48.058;7.810;2024-01-27T11:09:47;3.80;;;3.30;;
1699;SDS011;847;48.058;7.810;2024-01-27T11:12:16;7.17;;;3.17;;
1699;SDS011;847;48.058;7.810;2024-01-27T11:14:44;6.87;;;4.67;;
1699;SDS011;847;48.058;7.810;2024-01-27T11:17:12;5.83;;;3.53;;
1699;SDS011;847;48.058;7.810;2024-01-27T11:19:40;5.60;;;4.00;;
1699;SDS011;847;48.058;7.810;2024-01-27T11:22:07;6.77;;;4.30;;
1699;SDS011;847;48.058;7.810;2024-01-27T11:24:34;8.83;;;3.30;;
1699;SDS011;847;48.058;7.810;2024-01-27T11:27:01;5.53;;;3.90;;
1699;SDS011;847;48.058;7.810;2024-01-27T11:29:28;6.30;;;3.90;;
1699;SDS011;847;48.058;7.810;2024-01-27T11:31:57;7.77;;;4.20;;
1699;SDS011;847;48.058;7.810;2024-01-27T11:34:26;5.87;;;4.50;;
1699;SDS011;847;48.058;7.810;2024-01-27T11:36:54;6.17;;;4.50;;
1699;SDS011;847;48.058;7.810;2024-01-27T11:39:25;6.40;;;4.40;;
1699;SDS011;847;48.058;7.810;2024-01-27T11:41:52;9.10;;;4.40;;
1699;SDS011;847;48.058;7.810;2024-01-27T11:44:19;10.70;;;5.13;;
1699;SDS011;847;48.058;7.810;2024-01-27T11:46:47;9.53;;;4.07;;
1699;SDS011;847;48.058;7.810;2024-01-27T11:49:14;7.27;;;4.00;;
1699;SDS011;847;48.058;7.810;2024-01-27T11:51:42;3.43;;;3.13;;
1699;SDS011;847;48.058;7.810;2024-01-27T11:54:10;5.70;;;4.50;;
1699;SDS011;847;48.058;7.810;2024-01-27T11:56:38;6.70;;;4.73;;
1699;SDS011;847;48.058;7.810;2024-01-27T11:59:04;4.83;;;3.93;;
1699;SDS011;847;48.058;7.810;2024-01-27T12:01:31;6.20;;;2.80;;
1699;SDS011;847;48.058;7.810;2024-01-27T12:03:58;4.90;;;3.60;;
1699;SDS011;847;48.058;7.810;2024-01-27T12:06:25;7.63;;;2.90;;
1699;SDS011;847;48.058;7.810;2024-01-27T12:08:55;7.00;;;2.97;;
1699;SDS011;847;48.058;7.810;2024-01-27T12:11:25;4.83;;;2.20;;
1699;SDS011;847;48.058;7.810;2024-01-27T12:13:55;3.00;;;2.43;;
1699;SDS011;847;48.058;7.810;2024-01-27T12:16:22;4.93;;;3.53;;
1699;SDS011;847;48.058;7.810;2024-01-27T12:18:51;7.13;;;4.17;;
1699;SDS011;847;48.058;7.810;2024-01-27T12:21:19;9.80;;;4.83;;
1699;SDS011;847;48.058;7.810;2024-01-27T12:23:50;8.00;;;3.73;;
1699;SDS011;847;48.058;7.810;2024-01-27T12:26:17;8.13;;;4.40;;
1699;SDS011;847;48.058;7.810;2024-01-27T12:28:47;7.27;;;5.20;;
1699;SDS011;847;48.058;7.810;2024-01-27T12:31:14;9.77;;;6.93;;
1699;SDS011;847;48.058;7.810;2024-01-27T12:33:47;8.00;;;4.53;;
1699;SDS011;847;48.058;7.810;2024-01-27T12:36:15;9.93;;;4.60;;
1699;SDS011;847;48.058;7.810;2024-01-27T12:38:45;7.33;;;4.30;;
1699;SDS011;847;48.058;7.810;2024-01-27T12:41:13;8.00;;;4.83;;
1699;SDS011;847;48.058;7.810;2024-01-27T12:43:40;6.50;;;4.13;;
1699;SDS011;847;48.058;7.810;2024-01-27T12:46:08;16.73;;;5.00;;
1699;SDS011;847;48.058;7.810;2024-01-27T12:48:36;10.93;;;5.60;;
1699;SDS011;847;48.058;7.810;2024-01-27T12:51:04;5.53;;;4.40;;
1699;SDS011;847;48.058;7.810;2024-01-27T12:53:30;5.60;;;4.80;;
1699;SDS011;847;48.058;7.810;2024-01-27T12:55:57;9.60;;;6.50;;
1699;SDS011;847;48.058;7.810;2024-01-27T12:58:24;6.27;;;4.83;;
1699;SDS011;847;48.058;7.810;2024-01-27T13:00:51;5.80;;;3.77;;
1699;SDS011;847;48.058;7.810;2024-01-27T13:03:19;6.20;;;5.07;;
1699;SDS011;847;48.058;7.810;2024-01-27T13:05:45;9.57;;;4.77;;
1699;SDS011;847;48.058;7.810;2024-01-27T13:08:13;6.23;;;4.20;;
1699;SDS011;847;48.058;7.810;2024-01-27T13:10:40;7.63;;;4.23;;
1699;SDS011;847;48.058;7.810;2024-01-27T13:13:06;8.80;;;5.33;;
1699;SDS011;847;48.058;7.810;2024-01-27T13:15:33;5.80;;;4.23;;
1699;SDS011;847;48.058;7.810;2024-01-27T13:18:00;6.00;;;5.10;;
1699;SDS011;847;48.058;7.810;2024-01-27T13:20:28;10.40;;;6.60;;
1699;SDS011;847;48.058;7.810;2024-01-27T13:22:54;6.47;;;5.00;;
1699;SDS011;847;48.058;7.810;2024-01-27T13:25:21;7.67;;;4.90;;
1699;SDS011;847;48.058;7.810;2024-01-27T13:27:48;7.10;;;6.03;;
1699;SDS011;847;48.058;7.810;2024-01-27T13:30:15;9.53;;;6.40;;
1699;SDS011;847;48.058;7.810;2024-01-27T13:32:42;7.83;;;4.90;;
1699;SDS011;847;48.058;7.810;2024-01-27T13:35:09;10.70;;;4.83;;
1699;SDS011;847;48.058;7.810;2024-01-27T13:37:37;5.67;;;3.97;;
1699;SDS011;847;48.058;7.810;2024-01-27T13:40:05;7.20;;;3.83;;
1699;SDS011;847;48.058;7.810;2024-01-27T13:42:34;6.23;;;4.00;;
1699;SDS011;847;48.058;7.810;2024-01-27T13:45:01;7.27;;;4.03;;
1699;SDS011;847;48.058;7.810;2024-01-27T13:47:28;8.83;;;5.00;;
1699;SDS011;847;48.058;7.810;2024-01-27T13:49:55;10.30;;;4.43;;
1699;SDS011;847;48.058;7.810;2024-01-27T13:52:22;5.97;;;4.03;;
1699;SDS011;847;48.058;7.810;2024-01-27T13:54:50;4.87;;;4.27;;
1699;SDS011;847;48.058;7.810;2024-01-27T13:57:20;6.77;;;3.80;;
1699;SDS011;847;48.058;7.810;2024-01-27T13:59:47;8.83;;;4.43;;
1699;SDS011;847;48.058;7.810;2024-01-27T14:02:13;14.07;;;6.13;;
1699;SDS011;847;48.058;7.810;2024-01-27T14:04:40;6.23;;;3.60;;
1699;SDS011;847;48.058;7.810;2024-01-27T14:07:07;7.43;;;4.60;;
1699;SDS011;847;48.058;7.810;2024-01-27T14:09:34;8.30;;;3.27;;
1699;SDS011;847;48.058;7.810;2024-01-27T14:12:03;7.07;;;4.10;;
1699;SDS011;847;48.058;7.810;2024-01-27T14:14:30;4.40;;;4.00;;
1699;SDS011;847;48.058;7.810;2024-01-27T14:16:57;5.30;;;4.10;;
1699;SDS011;847;48.058;7.810;2024-01-27T14:19:23;5.17;;;3.57;;
1699;SDS011;847;48.058;7.810;2024-01-27T14:21:50;8.63;;;3.47;;
1699;SDS011;847;48.058;7.810;2024-01-27T14:24:17;5.47;;;3.60;;
1699;SDS011;847;48.058;7.810;2024-01-27T14:26:44;6.00;;;3.93;;
1699;SDS011;847;48.058;7.810;2024-01-27T14:29:12;5.63;;;3.77;;
1699;SDS011;847;48.058;7.810;2024-01-27T14:31:38;5.77;;;3.90;;
1699;SDS011;847;48.058;7.810;2024-01-27T14:34:05;8.23;;;4.37;;
1699;SDS011;847;48.058;7.810;2024-01-27T14:36:32;5.70;;;4.23;;
1699;SDS011;847;48.058;7.810;2024-01-27T14:38:59;5.23;;;3.73;;
1699;SDS011;847;48.058;7.810;2024-01-27T14:41:25;5.30;;;3.57;;
1699;SDS011;847;48.058;7.810;2024-01-27T14:43:52;6.70;;;4.90;;
1699;SDS011;847;48.058;7.810;2024-01-27T14:46:21;10.23;;;4.30;;
1699;SDS011;847;48.058;7.810;2024-01-27T14:48:49;5.40;;;4.13;;
1699;SDS011;847;48.058;7.810;2024-01-27T14:51:15;6.77;;;4.40;;
1699;SDS011;847;48.058;7.810;2024-01-27T14:53:42;8.47;;;4.70;;
1699;SDS011;847;48.058;7.810;2024-01-27T14:56:09;7.00;;;4.67;;
1699;SDS011;847;48.058;7.810;2024-01-27T14:58:36;9.43;;;6.63;;
1699;SDS011;847;48.058;7.810;2024-01-27T15:01:05;5.63;;;5.03;;
1699;SDS011;847;48.058;7.810;2024-01-27T15:03:33;7.80;;;4.40;;
1699;SDS011;847;48.058;7.810;2024-01-27T15:06:01;5.77;;;3.40;;
1699;SDS011;847;48.058;7.810;2024-01-27T15:08:28;4.70;;;4.20;;
1699;SDS011;847;48.058;7.810;2024-01-27T15:10:55;5.30;;;4.03;;
1699;SDS011;847;48.058;7.810;2024-01-27T15:13:22;7.30;;;4.30;;
1699;SDS011;847;48.058;7.810;2024-01-27T15:15:49;6.60;;;4.40;;
1699;SDS011;847;48.058;7.810;2024-01-27T15:18:16;6.77;;;3.90;;
1699;SDS011;847;48.058;7.810;2024-01-27T15:20:44;5.40;;;3.30;;
1699;SDS011;847;48.058;7.810;2024-01-27T15:23:11;4.40;;;3.43;;
1699;SDS011;847;48.058;7.810;2024-01-27T15:25:38;4.33;;;3.50;;
1699;SDS011;847;48.058;7.810;2024-01-27T15:28:05;4.73;;;4.00;;
1699;SDS011;847;48.058;7.810;2024-01-27T15:30:33;4.40;;;3.93;;